Harlow, United Kingdom
Current Conditions -  °F | °C
As of 2:20 AM on Saturday 25 Oct 2014 (Local Time) from EGSS Reporting Station
Light Fog Light Fog  
Wind Chill: 42°   Ceiling: Unl
Heat Index: 45°   Visibility: 1.2mi
Dew Point: 45°   Wind: 5mph
Humidity: 100%   Direction: 230°SW
Pressure: 30"   Gusts: NA
Location:  51.78°N, 0.11°E
Report Text: EGSS 250120Z 23004KT 2000 BR MIFG NSC 07/07 Q1016
Loading
Personal Weather Stations






























Interactive Weather Map
Tropical Storm Tracking
New forecast layout! Learn more

10-Day Weather Forecast

Advertisements
Track Severe Weather on mobile